createdAt,value
2023-02-15T00:01:35.037Z,101683.25
2023-02-15T00:06:32.097Z,101688.78
2023-02-15T00:11:40.535Z,101679.91
2023-02-15T00:16:38.117Z,101670.38
2023-02-15T00:21:36.486Z,101674.84
2023-02-15T00:26:33.906Z,101668.16
2023-02-15T00:31:32.660Z,101659.47
2023-02-15T00:36:29.152Z,101654.31
2023-02-15T00:41:26.214Z,101651.03
2023-02-15T00:46:22.723Z,101653.81
2023-02-15T00:51:19.376Z,101644.28
2023-02-15T00:56:15.824Z,101654.78
2023-02-15T01:01:16.545Z,101653.22
2023-02-15T01:06:14.798Z,101653.31
2023-02-15T01:11:14.340Z,101645.41
2023-02-15T01:16:10.805Z,101645.44
2023-02-15T01:21:12.698Z,101641.22
2023-02-15T01:26:10.174Z,101633.41
2023-02-15T01:31:12.196Z,101628.31
2023-02-15T01:36:09.049Z,101616.56
2023-02-15T01:41:24.569Z,101616.69
2023-02-15T01:46:25.843Z,101614.38
2023-02-15T01:51:27.510Z,101619.53
2023-02-15T01:56:31.353Z,101622.91
2023-02-15T02:01:28.418Z,101614.19
2023-02-15T02:06:26.552Z,101608.03
2023-02-15T02:11:23.317Z,101597.38
2023-02-15T02:16:51.227Z,101591.47
2023-02-15T02:22:25.278Z,101593.56
2023-02-15T02:27:40.316Z,101596.25
2023-02-15T02:33:01.552Z,101590.66
2023-02-15T02:38:19.827Z,101586.41
2023-02-15T02:43:24.232Z,101583.94
2023-02-15T02:48:27.726Z,101579.03
2023-02-15T02:53:24.427Z,101566.69
2023-02-15T02:58:30.198Z,101558.13
2023-02-15T03:03:31.340Z,101552.84
2023-02-15T03:08:36.522Z,101547.78
2023-02-15T03:13:34.422Z,101551.22
2023-02-15T03:18:36.594Z,101555.84
2023-02-15T03:23:35.604Z,101553.09
2023-02-15T03:28:42.094Z,101559.06
2023-02-15T03:33:45.869Z,101545.00
2023-02-15T03:39:00.265Z,101545.94
2023-02-15T03:44:01.766Z,101546.38
2023-02-15T03:49:21.156Z,101553.34
2023-02-15T03:54:43.802Z,101534.94
2023-02-15T03:59:58.804Z,101534.09
2023-02-15T04:04:55.138Z,101530.66
2023-02-15T04:10:10.109Z,101535.16
2023-02-15T04:15:39.099Z,101530.19
2023-02-15T04:20:54.008Z,101536.25
2023-02-15T04:25:50.329Z,101530.09
2023-02-15T04:30:47.512Z,101524.72
2023-02-15T04:35:45.949Z,101521.41
2023-02-15T04:40:42.310Z,101513.50
2023-02-15T04:45:38.770Z,101509.97
2023-02-15T04:50:35.127Z,101496.09
2023-02-15T04:55:31.614Z,101503.03
2023-02-15T05:00:28.463Z,101513.91
2023-02-15T05:05:24.997Z,101509.53
2023-02-15T05:10:21.421Z,101500.56
2023-02-15T05:15:17.862Z,101517.31
2023-02-15T05:20:14.742Z,101512.13
2023-02-15T05:25:29.600Z,101499.88
2023-02-15T05:30:26.178Z,101497.44
2023-02-15T05:35:22.698Z,101502.75
2023-02-15T05:40:19.311Z,101501.16
2023-02-15T05:45:16.546Z,101503.66
2023-02-15T05:50:12.883Z,101501.97
2023-02-15T05:55:09.793Z,101500.31
2023-02-15T06:00:07.178Z,101486.41
2023-02-15T06:05:05.553Z,101500.50
2023-02-15T06:10:01.911Z,101496.16
2023-02-15T06:14:58.299Z,101495.06
2023-02-15T06:19:54.618Z,101495.00
2023-02-15T06:24:51.035Z,101499.53
2023-02-15T06:29:47.415Z,101495.88
2023-02-15T06:34:43.780Z,101507.25
2023-02-15T06:39:40.145Z,101505.41
2023-02-15T06:44:36.608Z,101501.81
2023-02-15T06:49:32.978Z,101496.75
2023-02-15T06:54:29.421Z,101492.59
2023-02-15T06:59:25.835Z,101496.78
2023-02-15T07:04:22.236Z,101497.44
2023-02-15T07:09:18.623Z,101503.72
2023-02-15T07:14:14.949Z,101505.28
2023-02-15T07:19:11.365Z,101495.81
2023-02-15T07:24:07.819Z,101500.97
2023-02-15T07:29:04.222Z,101508.63
2023-02-15T07:34:00.551Z,101499.75
2023-02-15T07:38:56.931Z,101511.09
2023-02-15T07:43:53.288Z,101504.56
2023-02-15T07:48:49.667Z,101506.31
2023-02-15T07:53:46.106Z,101514.44
2023-02-15T07:58:51.639Z,101507.28
2023-02-15T08:03:48.355Z,101495.88
2023-02-15T08:08:44.906Z,101489.72
2023-02-15T08:13:54.500Z,101476.00
2023-02-15T08:18:52.645Z,101456.47
2023-02-15T08:23:49.178Z,101440.78
2023-02-15T08:28:47.310Z,101428.63
2023-02-15T08:33:45.830Z,101414.56
2023-02-15T08:38:42.864Z,101410.47
2023-02-15T08:43:39.787Z,101400.00
2023-02-15T08:48:36.152Z,101402.25
2023-02-15T08:53:32.456Z,101401.53
2023-02-15T08:58:31.583Z,101401.88
2023-02-15T09:03:28.577Z,101396.31
2023-02-15T09:08:25.304Z,101396.06
2023-02-15T09:13:22.175Z,101392.44
2023-02-15T09:18:18.667Z,101390.03
2023-02-15T09:23:26.743Z,101383.53
2023-02-15T09:28:23.468Z,101383.06
2023-02-15T09:33:19.869Z,101382.59
2023-02-15T09:38:16.208Z,101381.13
2023-02-15T09:43:25.275Z,101384.31
2023-02-15T09:48:42.005Z,101380.09
2023-02-15T09:53:53.433Z,101370.56
2023-02-15T09:58:53.511Z,101372.53
2023-02-15T10:04:08.536Z,101375.97
2023-02-15T10:09:18.471Z,101380.31
2023-02-15T10:14:43.679Z,101376.38
2023-02-15T10:20:05.648Z,101375.50
2023-02-15T10:25:02.786Z,101375.50
2023-02-15T10:30:08.348Z,101367.41
2023-02-15T10:35:16.595Z,101370.41
2023-02-15T10:40:26.477Z,101370.72
2023-02-15T10:45:31.940Z,101359.63
2023-02-15T10:50:38.141Z,101353.03
2023-02-15T10:55:48.449Z,101344.53
2023-02-15T11:00:53.318Z,101349.19
2023-02-15T11:06:05.555Z,101347.00
2023-02-15T11:11:09.992Z,101342.63
2023-02-15T11:16:18.979Z,101348.47
2023-02-15T11:21:24.103Z,101342.75
2023-02-15T11:26:35.433Z,101337.78
2023-02-15T11:31:44.955Z,101335.72
2023-02-15T11:36:44.371Z,101339.75
2023-02-15T11:41:52.980Z,101327.34
2023-02-15T11:46:49.986Z,101322.44
2023-02-15T11:51:46.377Z,101328.94
2023-02-15T11:56:42.736Z,101322.00
2023-02-15T12:01:43.453Z,101302.25
2023-02-15T12:06:54.056Z,101310.22
2023-02-15T12:11:50.455Z,101297.53
2023-02-15T12:16:50.543Z,101290.06
2023-02-15T12:21:52.040Z,101297.59
2023-02-15T12:27:19.793Z,101282.22
2023-02-15T12:32:23.280Z,101271.72
2023-02-15T12:37:33.046Z,101264.59
2023-02-15T12:42:45.852Z,101262.59
2023-02-15T12:47:42.374Z,101250.84
2023-02-15T12:52:40.106Z,101245.41
2023-02-15T12:57:36.662Z,101244.25
2023-02-15T13:02:41.961Z,101233.03
2023-02-15T13:07:38.703Z,101223.94
2023-02-15T13:12:36.018Z,101233.34
2023-02-15T13:17:35.419Z,101228.09
2023-02-15T13:22:42.966Z,101233.22
2023-02-15T13:27:42.210Z,101223.09
2023-02-15T13:32:41.963Z,101225.88
2023-02-15T13:38:05.123Z,101210.28
2023-02-15T13:43:41.183Z,101206.44
2023-02-15T13:48:56.203Z,101198.09
2023-02-15T13:54:11.775Z,101188.78
2023-02-15T13:59:23.548Z,101184.75
2023-02-15T14:04:38.900Z,101182.72
2023-02-15T14:10:16.930Z,101173.34
2023-02-15T14:15:51.597Z,101165.13
2023-02-15T14:21:12.572Z,101159.03
2023-02-15T14:26:33.160Z,101164.66
2023-02-15T14:31:36.169Z,101163.66
2023-02-15T14:36:34.148Z,101159.31
2023-02-15T14:41:42.761Z,101165.31
2023-02-15T14:47:05.875Z,101163.78
2023-02-15T14:52:05.908Z,101156.13
2023-02-15T14:57:02.259Z,101158.75
2023-02-15T15:02:10.261Z,101147.81
2023-02-15T15:07:12.760Z,101150.13
2023-02-15T15:12:36.089Z,101145.50
2023-02-15T15:17:32.492Z,101140.16
2023-02-15T15:22:30.919Z,101138.25
2023-02-15T15:27:39.621Z,101136.97
2023-02-15T15:32:36.597Z,101132.13
2023-02-15T15:37:59.194Z,101129.09
2023-02-15T15:43:28.818Z,101130.22
2023-02-15T15:48:39.103Z,101132.09
2023-02-15T15:53:43.156Z,101132.41
2023-02-15T15:58:55.290Z,101133.38
2023-02-15T16:03:53.943Z,101125.59
2023-02-15T16:08:52.106Z,101124.47
2023-02-15T16:13:48.624Z,101125.06
2023-02-15T16:18:45.806Z,101123.50
2023-02-15T16:23:57.958Z,101120.00
2023-02-15T16:28:54.923Z,101116.06
2023-02-15T16:33:54.732Z,101126.84
2023-02-15T16:38:51.021Z,101126.94
2023-02-15T16:43:49.964Z,101115.56
2023-02-15T16:48:49.492Z,101109.09
2023-02-15T16:53:47.998Z,101105.97
2023-02-15T16:58:45.524Z,101103.50
2023-02-15T17:03:42.843Z,101111.97
2023-02-15T17:08:45.771Z,101118.88
2023-02-15T17:14:07.501Z,101123.97
2023-02-15T17:19:13.950Z,101129.66
2023-02-15T17:24:18.444Z,101127.56
2023-02-15T17:29:39.228Z,101136.19
2023-02-15T17:35:19.908Z,101139.94
2023-02-15T17:40:26.975Z,101147.69
2023-02-15T17:45:27.124Z,101136.41
2023-02-15T17:50:26.005Z,101129.44
2023-02-15T17:55:38.758Z,101129.66
2023-02-15T18:00:57.616Z,101141.50
2023-02-15T18:06:12.842Z,101133.78
2023-02-15T18:11:29.176Z,101132.97
2023-02-15T18:16:27.374Z,101123.22
2023-02-15T18:21:24.686Z,101126.78
2023-02-15T18:26:24.354Z,101119.31
2023-02-15T18:31:21.593Z,101122.56
2023-02-15T18:36:27.923Z,101121.59
2023-02-15T18:41:24.506Z,101129.81
2023-02-15T18:46:22.247Z,101124.97
2023-02-15T18:51:21.291Z,101126.81
2023-02-15T18:56:20.581Z,101127.97
2023-02-15T19:01:19.838Z,101131.38
2023-02-15T19:06:19.108Z,101125.69
2023-02-15T19:11:23.005Z,101116.19
2023-02-15T19:16:28.933Z,101118.25
2023-02-15T19:21:27.755Z,101123.97
2023-02-15T19:26:30.757Z,101124.09
2023-02-15T19:31:36.200Z,101130.22
2023-02-15T19:36:32.644Z,101134.16
2023-02-15T19:41:34.269Z,101147.00
2023-02-15T19:46:30.614Z,101138.91
2023-02-15T19:51:27.680Z,101135.53
2023-02-15T19:56:24.458Z,101128.75
2023-02-15T20:01:23.033Z,101152.84
2023-02-15T20:06:19.524Z,101153.81
2023-02-15T20:11:15.878Z,101165.75
2023-02-15T20:16:12.251Z,101165.66
2023-02-15T20:21:15.110Z,101164.47
2023-02-15T20:26:18.147Z,101172.38
2023-02-15T20:31:16.471Z,101166.53
2023-02-15T20:36:15.218Z,101166.28
2023-02-15T20:41:36.005Z,101165.63
2023-02-15T20:46:32.370Z,101168.00
2023-02-15T20:51:28.727Z,101156.59
2023-02-15T20:56:25.617Z,101152.28
2023-02-15T21:01:21.953Z,101155.22
2023-02-15T21:06:18.751Z,101151.09
2023-02-15T21:11:24.151Z,101160.75
2023-02-15T21:16:20.785Z,101168.00
2023-02-15T21:21:23.604Z,101158.72
2023-02-15T21:26:22.517Z,101156.38
2023-02-15T21:31:23.692Z,101159.16
2023-02-15T21:36:23.427Z,101155.34
2023-02-15T21:41:41.050Z,101171.75
2023-02-15T21:46:56.125Z,101174.53
2023-02-15T21:52:11.179Z,101172.00
2023-02-15T21:57:13.324Z,101174.00
2023-02-15T22:02:28.305Z,101177.63
2023-02-15T22:07:24.690Z,101171.06
2023-02-15T22:12:21.951Z,101168.63
2023-02-15T22:17:20.899Z,101169.84
2023-02-15T22:22:17.600Z,101179.19
2023-02-15T22:27:20.517Z,101167.97
2023-02-15T22:32:22.927Z,101173.44
2023-02-15T22:37:20.275Z,101171.06
2023-02-15T22:42:27.943Z,101179.19
2023-02-15T22:47:27.941Z,101171.50
2023-02-15T22:52:25.277Z,101175.44
2023-02-15T22:57:30.008Z,101173.56
2023-02-15T23:02:26.854Z,101174.03
2023-02-15T23:07:23.409Z,101187.94
2023-02-15T23:12:24.494Z,101182.47
2023-02-15T23:17:21.336Z,101171.66
2023-02-15T23:22:18.245Z,101182.63
2023-02-15T23:27:37.357Z,101176.56
2023-02-15T23:32:33.714Z,101183.31
2023-02-15T23:37:30.123Z,101178.34
2023-02-15T23:42:30.507Z,101183.97
2023-02-15T23:47:51.313Z,101182.00
2023-02-15T23:52:49.354Z,101188.34
2023-02-15T23:57:46.235Z,101191.78
